createdAt,value
2017-05-21T00:00:10.582Z,9.42
2017-05-21T00:10:10.570Z,9.39
2017-05-21T00:20:10.568Z,9.28
2017-05-21T00:30:10.566Z,9.2
2017-05-21T00:40:10.566Z,9.18
2017-05-21T00:50:10.566Z,8.94
2017-05-21T01:00:10.608Z,8.75
2017-05-21T01:10:10.565Z,8.68
2017-05-21T01:20:10.559Z,8.58
2017-05-21T01:30:10.565Z,8.48
2017-05-21T01:40:10.560Z,8.25
2017-05-21T01:50:10.600Z,8.36
2017-05-21T02:00:10.566Z,8.29
2017-05-21T02:10:10.638Z,8.17
2017-05-21T02:20:10.608Z,8.25
2017-05-21T02:30:10.545Z,8.15
2017-05-21T02:40:10.624Z,8.12
2017-05-21T02:50:10.586Z,8.03
2017-05-21T03:00:10.539Z,8.08
2017-05-21T03:10:10.541Z,8.1
2017-05-21T03:20:10.546Z,8.07
2017-05-21T03:30:10.641Z,8.02
2017-05-21T03:40:10.603Z,8.02
2017-05-21T03:50:10.549Z,8.35
2017-05-21T04:00:10.632Z,8.32
2017-05-21T04:10:10.536Z,8.63
2017-05-21T04:20:10.643Z,8.87
2017-05-21T04:30:10.590Z,8.99
2017-05-21T04:40:10.550Z,9.28
2017-05-21T04:50:10.520Z,9.58
2017-05-21T05:00:10.598Z,9.89
2017-05-21T05:10:10.594Z,10.44
2017-05-21T05:20:10.619Z,10.66
2017-05-21T05:30:10.578Z,11.16
2017-05-21T05:40:10.622Z,11.46
2017-05-21T05:50:10.600Z,11.94
2017-05-21T06:00:10.518Z,12.46
2017-05-21T06:10:10.630Z,13.2
2017-05-21T06:20:10.579Z,14.86
2017-05-21T06:30:10.558Z,21.76
2017-05-21T06:40:10.614Z,25.53
2017-05-21T06:50:10.518Z,28.51
2017-05-21T07:00:10.617Z,30.3
2017-05-21T07:10:10.574Z,31.01
2017-05-21T07:20:10.651Z,32.13
2017-05-21T07:30:10.548Z,32.73
2017-05-21T07:40:10.545Z,33.14
2017-05-21T07:50:10.631Z,34.26
2017-05-21T08:00:10.797Z,35.36
2017-05-21T08:10:10.552Z,35.15
2017-05-21T08:20:10.623Z,34.51
2017-05-21T08:30:10.571Z,33.61
2017-05-21T08:40:10.671Z,33.01
2017-05-21T08:50:10.619Z,31.8
2017-05-21T09:00:10.591Z,30.23
2017-05-21T09:10:10.633Z,25.83
2017-05-21T09:20:10.613Z,24.29
2017-05-21T09:30:10.655Z,23.62
2017-05-21T09:40:10.620Z,22.99
2017-05-21T09:50:10.602Z,22.56
2017-05-21T10:00:10.690Z,22.62
2017-05-21T10:10:10.962Z,22.78
2017-05-21T10:20:10.692Z,23.11
2017-05-21T10:30:10.645Z,22.37
2017-05-21T10:40:10.692Z,22.53
2017-05-21T10:50:10.606Z,22.71
2017-05-21T11:00:10.609Z,22.53
2017-05-21T11:10:10.731Z,23.17
2017-05-21T11:20:18.857Z,23.31
2017-05-21T11:30:10.694Z,23.75
2017-05-21T11:40:10.676Z,22.75
2017-05-21T11:50:10.631Z,21.92
2017-05-21T12:00:10.689Z,22.35
2017-05-21T12:10:10.671Z,22.32
2017-05-21T12:20:10.623Z,22.38
2017-05-21T12:30:10.704Z,23.08
2017-05-21T12:40:11.044Z,23.35
2017-05-21T12:50:10.689Z,23.61
2017-05-21T13:00:10.807Z,23.97
2017-05-21T13:10:10.728Z,23.57
2017-05-21T13:20:10.679Z,23.72
2017-05-21T13:30:10.689Z,23.92
2017-05-21T13:40:10.846Z,24.14
2017-05-21T13:50:10.655Z,24.69
2017-05-21T14:00:10.803Z,24.83
2017-05-21T14:10:10.712Z,24.38
2017-05-21T14:20:10.675Z,24.91
2017-05-21T14:30:10.733Z,25.32
2017-05-21T14:40:10.667Z,24.08
2017-05-21T14:50:10.647Z,23.23
2017-05-21T15:00:10.693Z,23.52
2017-05-21T15:10:10.684Z,23.83
2017-05-21T15:20:10.772Z,24.12
2017-05-21T15:30:10.732Z,23.7
2017-05-21T15:40:10.768Z,23.85
2017-05-21T15:50:10.674Z,23.72
2017-05-21T16:00:10.669Z,23.71
2017-05-21T16:10:10.645Z,23.22
2017-05-21T16:20:10.702Z,23.09
2017-05-21T16:30:10.666Z,22.82
2017-05-21T16:40:10.713Z,22.53
2017-05-21T16:50:10.647Z,22.27
2017-05-21T17:00:10.670Z,21.95
2017-05-21T17:10:10.654Z,21.45
2017-05-21T17:20:10.658Z,21.36
2017-05-21T17:30:10.714Z,20.95
2017-05-21T17:40:10.674Z,20.64
2017-05-21T17:50:10.656Z,20.41
2017-05-21T18:00:10.675Z,20.16
2017-05-21T18:10:10.685Z,19.98
2017-05-21T18:20:10.672Z,19.75
2017-05-21T18:30:10.684Z,19.51
2017-05-21T18:40:10.677Z,19.1
2017-05-21T18:50:10.756Z,18.68
2017-05-21T19:00:10.788Z,18.25
2017-05-21T19:10:10.680Z,17.79
2017-05-21T19:20:10.805Z,17.2
2017-05-21T19:30:10.783Z,16.62
2017-05-21T19:40:10.743Z,16.07
2017-05-21T19:50:10.697Z,15.63
2017-05-21T20:00:10.697Z,15.17
2017-05-21T20:10:10.855Z,14.84
2017-05-21T20:20:10.692Z,14.56
2017-05-21T20:30:10.780Z,14.25
2017-05-21T20:40:10.712Z,13.98
2017-05-21T20:50:10.898Z,13.69
2017-05-21T21:00:10.756Z,13.51
2017-05-21T21:10:10.747Z,13.29
2017-05-21T21:20:10.797Z,13.03
2017-05-21T21:30:10.727Z,12.85
2017-05-21T21:40:10.791Z,12.74
2017-05-21T21:50:10.706Z,12.66
2017-05-21T22:00:10.769Z,12.49
2017-05-21T22:10:10.741Z,12.31
2017-05-21T22:20:10.663Z,12.2
2017-05-21T22:30:10.759Z,11.97
2017-05-21T22:40:10.707Z,11.85
2017-05-21T22:50:10.683Z,12.2
2017-05-21T23:00:10.644Z,12.6
2017-05-21T23:10:10.656Z,13
2017-05-21T23:20:10.753Z,13.18
2017-05-21T23:30:10.762Z,13.47
2017-05-21T23:40:10.693Z,13.67
2017-05-21T23:50:20.512Z,13.77
